Airfield :
LOGIN :

Register | Disclaimer

   EN    FR    IT 

 










Legend :    VFR   Marginal VFR   IFR   Intensive IFR   Very Intensive IFR
Visi :
Ceiling :
>= 8 km
>= 3000ft
5 to 8 km
1000 to 3000 ft
1500m to 5 km
500 to 1000 ft
800 to 1500m
200 to 500 ft
< 800m
< 200 ft
Symbols :   Thunderstorms  Fog  Heavy snow  Heavy precipitations  Wind > 20 kt
SIGMETs :     Misc.  Thunderstorms  Icing  Turbulence  Mountain Waves  Volcanic Ashes






- Airport Elevation : 1245 ft
- IATA code : AJR


ESNX - Arvidsjaur

CURRENT METAR :
  • 071550Z AUTO 29015KT 9999 SCT031/// BKN110/// 12/06 Q1013

EXPIRED METARs :
  • 071520Z AUTO 29017KT 9999 BKN037/// 14/06 Q1012
  • 071450Z 28017KT 9999 SCT044CB 13/06 Q1012
  • 071420Z 27014KT 9999 FEW038CB BKN053 13/06 Q1012
  • 071350Z 27015KT 9999 FEW040CB BKN053 14/06 Q1011
  • 071320Z 29015KT 9999 BKN042 14/06 Q1011

TAF TAF ESNX
Valid from the 07 at 15:00 until the 07 at 20:00 UTC


071430Z 0715/0720 28014KT 9999 SCT040
PROB40 0715/0716 SCT040CB



MET'MAP, your aeronautical weather chart ! - Copyright ORBIFLY December 2007 - Disclaimer

ORBIFLY MET'MAP TEAM :

Programming & Development : Alexandra Zaïnal
Original concept : Baudouin d'Aumeries
Technical & hardware support : Manuel Goepfert
Assistance : Marc-Olivier Méhu




SOURCES & CREDITS :

   NOAA